Time;durP1;ratioP1;P1;durP2;ratioP2;P2;SDS_P1;SDS_P2;PMS_P1;PMS_P2;Temp;Humidity;BMP_temperature;BMP_pressure;BME280_temperature;BME280_humidity;BME280_pressure;Samples;Min_cycle;Max_cycle;Signal;HPM_P1;HPM_P2
2023/12/13 00:01:51;;;;;;;16.07;11.43;;;4.20;99.90;;;;;;5059266;28;20190;-63
2023/12/13 00:04:17;;;;;;;21.03;11.43;;;4.20;99.90;;;;;;5063914;28;20554;-63
2023/12/13 00:06:42;;;;;;;18.50;11.80;;;4.20;99.90;;;;;;5055001;28;20167;-61
2023/12/13 00:09:08;;;;;;;20.30;12.50;;;4.20;99.90;;;;;;5068786;28;20170;-64
2023/12/13 00:11:34;;;;;;;16.93;12.13;;;4.20;99.90;;;;;;5058237;28;20195;-62
2023/12/13 00:14:00;;;;;;;22.70;13.00;;;4.20;99.90;;;;;;5057819;28;20163;-63
2023/12/13 00:16:25;;;;;;;20.53;13.33;;;4.10;99.90;;;;;;5063315;28;20415;-62
2023/12/13 00:18:51;;;;;;;27.60;14.90;;;4.10;99.90;;;;;;5063170;28;20195;-64
2023/12/13 00:21:17;;;;;;;23.77;14.60;;;4.10;99.90;;;;;;5060919;28;20197;-64
2023/12/13 00:23:44;;;;;;;22.90;14.33;;;4.10;99.90;;;;;;5054329;28;20259;-62
2023/12/13 00:26:17;;;;;;;22.30;12.70;;;4.20;99.90;;;;;;5060839;28;20404;-62
2023/12/13 00:28:43;;;;;;;24.20;13.47;;;4.20;99.90;;;;;;5056765;28;20425;-62
2023/12/13 00:31:10;;;;;;;16.20;12.20;;;4.10;99.90;;;;;;5059303;28;20433;-63
2023/12/13 00:33:35;;;;;;;22.00;13.70;;;4.10;99.90;;;;;;5065383;28;20880;-63
2023/12/13 00:36:02;;;;;;;21.33;13.20;;;4.10;99.90;;;;;;5070579;28;20427;-63
2023/12/13 00:38:27;;;;;;;23.07;13.10;;;4.10;99.90;;;;;;5057601;28;20269;-63
2023/12/13 00:40:53;;;;;;;20.70;13.10;;;4.10;99.90;;;;;;5048646;28;20457;-64
2023/12/13 00:43:18;;;;;;;22.67;14.73;;;4.10;99.90;;;;;;5047789;28;20252;-63
2023/12/13 00:45:44;;;;;;;22.50;13.10;;;4.10;99.90;;;;;;5053576;28;20245;-63
2023/12/13 00:48:09;;;;;;;24.07;13.80;;;4.10;99.90;;;;;;5056897;28;20167;-64
2023/12/13 00:50:35;;;;;;;25.13;14.83;;;4.20;99.90;;;;;;5053829;28;20528;-62
2023/12/13 00:53:01;;;;;;;22.27;14.57;;;4.10;99.90;;;;;;5057850;28;20278;-62
2023/12/13 00:55:27;;;;;;;21.07;13.57;;;4.10;99.90;;;;;;5065220;28;20190;-62
2023/12/13 00:57:52;;;;;;;29.83;14.97;;;4.10;99.90;;;;;;5056649;28;20214;-62
2023/12/13 01:00:18;;;;;;;21.63;13.00;;;4.10;99.90;;;;;;5060941;28;20468;-63
2023/12/13 01:02:44;;;;;;;26.67;17.93;;;4.10;99.90;;;;;;5050229;28;20202;-62
2023/12/13 01:05:09;;;;;;;22.60;14.03;;;4.10;99.90;;;;;;5060490;28;20225;-62
2023/12/13 01:07:35;;;;;;;25.03;14.53;;;4.10;99.90;;;;;;5059323;28;20178;-62
2023/12/13 01:10:01;;;;;;;23.47;13.27;;;4.10;99.90;;;;;;5058109;28;20175;-62
2023/12/13 01:12:26;;;;;;;24.83;14.90;;;4.10;99.90;;;;;;5054637;28;20190;-62
2023/12/13 01:14:52;;;;;;;23.30;13.80;;;4.10;99.90;;;;;;5063617;28;20178;-63
2023/12/13 01:17:18;;;;;;;24.73;14.37;;;4.10;99.90;;;;;;5046667;28;20175;-62
2023/12/13 01:19:44;;;;;;;20.53;13.50;;;4.10;99.90;;;;;;5063442;28;20247;-62
2023/12/13 01:22:09;;;;;;;25.90;16.03;;;4.10;99.90;;;;;;5060089;28;20191;-62
2023/12/13 01:24:35;;;;;;;22.80;14.97;;;4.20;99.90;;;;;;5052260;28;20199;-62
2023/12/13 01:27:01;;;;;;;25.63;14.50;;;4.20;99.90;;;;;;5042489;28;20191;-62
2023/12/13 01:29:26;;;;;;;21.47;15.13;;;4.20;99.90;;;;;;5047039;28;20868;-62
2023/12/13 01:31:53;;;;;;;19.80;14.40;;;4.20;99.90;;;;;;5050320;28;20190;-62
2023/12/13 01:34:18;;;;;;;22.40;13.63;;;4.20;99.90;;;;;;5054861;28;20253;-62
2023/12/13 01:36:44;;;;;;;21.80;14.10;;;4.20;99.90;;;;;;5066676;28;20413;-62
2023/12/13 01:39:12;;;;;;;24.93;15.17;;;4.20;99.90;;;;;;5065415;28;20194;-61
2023/12/13 01:41:38;;;;;;;22.33;13.50;;;4.20;99.90;;;;;;5056073;28;20430;-62
2023/12/13 01:44:04;;;;;;;28.17;15.00;;;4.20;99.90;;;;;;5060117;28;20432;-63
2023/12/13 01:46:31;;;;;;;23.23;14.80;;;4.30;99.90;;;;;;5058294;28;20209;-62
2023/12/13 01:48:56;;;;;;;18.30;13.97;;;4.30;99.90;;;;;;5064104;28;20177;-63
2023/12/13 01:51:22;;;;;;;21.67;13.57;;;4.30;99.90;;;;;;5058998;28;20436;-61
2023/12/13 01:53:49;;;;;;;18.83;14.43;;;4.30;99.90;;;;;;5065317;28;20761;-61
2023/12/13 01:56:15;;;;;;;21.70;12.63;;;4.30;99.90;;;;;;5052796;28;20182;-61
2023/12/13 01:58:41;;;;;;;19.37;13.60;;;4.30;99.90;;;;;;5067853;28;20452;-62
2023/12/13 02:01:08;;;;;;;22.70;16.83;;;4.30;99.90;;;;;;5052580;28;20421;-61
2023/12/13 02:03:35;;;;;;;18.53;13.10;;;4.30;99.90;;;;;;5058211;28;20485;-62
2023/12/13 02:06:01;;;;;;;19.20;13.73;;;4.40;99.90;;;;;;5070063;28;20907;-62
2023/12/13 02:08:27;;;;;;;20.40;13.70;;;4.40;99.90;;;;;;5054130;28;20420;-62
2023/12/13 02:10:53;;;;;;;15.57;10.70;;;4.40;99.90;;;;;;5051405;28;20433;-62
2023/12/13 02:13:19;;;;;;;19.77;13.30;;;4.40;99.90;;;;;;5047782;28;20397;-62
2023/12/13 02:15:45;;;;;;;18.07;12.10;;;4.40;99.90;;;;;;5053121;28;20539;-63
2023/12/13 02:18:11;;;;;;;17.93;12.03;;;4.50;99.90;;;;;;5050651;28;20199;-64
2023/12/13 02:20:36;;;;;;;23.40;12.73;;;4.40;99.90;;;;;;5052241;28;20417;-61
2023/12/13 02:23:02;;;;;;;21.60;11.77;;;4.50;99.90;;;;;;5057744;28;20174;-62
2023/12/13 02:25:42;;;;;;;18.17;13.33;;;4.50;99.90;;;;;;5066928;28;20167;-60
2023/12/13 02:28:08;;;;;;;19.50;13.10;;;4.50;99.90;;;;;;5053370;28;20192;-63
2023/12/13 02:30:37;;;;;;;15.03;12.20;;;4.60;99.90;;;;;;5059267;28;20860;-63
2023/12/13 02:33:03;;;;;;;21.20;12.50;;;4.60;99.90;;;;;;5047299;28;20425;-63
2023/12/13 02:35:28;;;;;;;16.07;11.53;;;4.60;99.90;;;;;;5048394;28;20412;-63
2023/12/13 02:37:54;;;;;;;17.23;12.77;;;4.60;99.90;;;;;;5058501;28;20197;-63
2023/12/13 02:40:21;;;;;;;17.93;13.27;;;4.60;99.90;;;;;;5063852;28;20657;-62
2023/12/13 02:42:47;;;;;;;16.43;11.97;;;4.60;99.90;;;;;;5048573;28;20231;-62
2023/12/13 02:45:14;;;;;;;20.37;12.40;;;4.70;99.90;;;;;;5050529;28;20420;-63
2023/12/13 02:47:42;;;;;;;21.63;13.63;;;4.70;99.90;;;;;;5057476;28;20175;-61
2023/12/13 02:50:11;;;;;;;19.30;13.70;;;4.70;99.90;;;;;;5058464;28;20769;-63
2023/12/13 02:52:38;;;;;;;27.03;16.30;;;4.70;99.90;;;;;;5055730;28;20445;-63
2023/12/13 02:55:04;;;;;;;20.93;13.43;;;4.70;99.90;;;;;;5067875;28;20412;-63
2023/12/13 02:57:30;;;;;;;21.37;13.43;;;4.70;99.90;;;;;;5068956;28;20448;-64
2023/12/13 02:59:56;;;;;;;25.50;14.73;;;4.70;99.90;;;;;;5054811;28;20432;-63
2023/12/13 03:02:21;;;;;;;19.00;12.90;;;4.60;99.90;;;;;;5060769;28;20178;-63
2023/12/13 03:04:47;;;;;;;18.70;13.50;;;4.70;99.90;;;;;;5056507;28;20675;-63
2023/12/13 03:07:12;;;;;;;24.97;14.53;;;4.60;99.90;;;;;;5065499;28;20648;-63
2023/12/13 03:09:39;;;;;;;21.07;13.40;;;4.70;99.90;;;;;;5057394;28;20171;-63
2023/12/13 03:12:06;;;;;;;18.63;13.00;;;4.60;99.90;;;;;;5050177;28;20186;-63
2023/12/13 03:14:31;;;;;;;21.20;14.47;;;4.60;99.90;;;;;;5061704;28;20984;-63
2023/12/13 03:16:57;;;;;;;20.30;13.60;;;4.60;99.90;;;;;;5063680;28;20408;-64
2023/12/13 03:19:23;;;;;;;18.60;12.63;;;4.60;99.90;;;;;;5062256;28;20623;-63
2023/12/13 03:21:48;;;;;;;24.83;13.00;;;4.60;99.90;;;;;;5052330;28;20232;-63
2023/12/13 03:24:14;;;;;;;30.30;13.97;;;4.60;99.90;;;;;;5059942;28;20174;-62
2023/12/13 03:26:39;;;;;;;20.70;14.77;;;4.60;99.90;;;;;;5054341;28;20180;-63
2023/12/13 03:29:05;;;;;;;23.23;13.90;;;4.60;99.90;;;;;;5071992;28;20605;-62
2023/12/13 03:31:30;;;;;;;26.50;14.77;;;4.60;99.90;;;;;;5058272;28;20200;-62
2023/12/13 03:33:56;;;;;;;17.90;12.47;;;4.60;99.90;;;;;;5056951;28;20193;-62
2023/12/13 03:36:22;;;;;;;21.70;14.97;;;4.60;99.90;;;;;;5069764;28;20175;-61
2023/12/13 03:38:47;;;;;;;25.07;13.70;;;4.60;99.90;;;;;;5058961;28;20632;-62
2023/12/13 03:41:13;;;;;;;22.57;13.13;;;4.60;99.90;;;;;;5065082;28;20287;-61
2023/12/13 03:43:41;;;;;;;19.83;12.77;;;4.60;99.90;;;;;;5053356;28;20626;-62
2023/12/13 03:46:07;;;;;;;22.00;14.93;;;4.60;99.90;;;;;;5053777;28;20535;-62
2023/12/13 03:48:33;;;;;;;20.07;13.57;;;4.60;99.90;;;;;;5065388;28;20416;-62
2023/12/13 03:50:58;;;;;;;19.53;14.30;;;4.50;99.90;;;;;;5063843;28;20197;-61
2023/12/13 03:53:24;;;;;;;19.83;13.70;;;4.60;99.90;;;;;;5062284;28;20191;-62
2023/12/13 03:55:49;;;;;;;20.47;14.20;;;4.60;99.90;;;;;;5056357;28;20541;-62
2023/12/13 03:58:15;;;;;;;27.70;14.70;;;4.50;99.90;;;;;;5064146;28;20199;-61
2023/12/13 04:00:40;;;;;;;24.10;15.53;;;4.60;99.90;;;;;;5055853;28;20201;-60
2023/12/13 04:03:06;;;;;;;23.57;13.70;;;4.60;99.90;;;;;;5065844;28;20377;-62
2023/12/13 04:05:32;;;;;;;24.03;15.00;;;4.60;99.90;;;;;;5061549;28;20213;-59
2023/12/13 04:07:58;;;;;;;18.13;13.47;;;4.60;99.90;;;;;;5055584;28;20162;-60
2023/12/13 04:10:23;;;;;;;25.23;14.47;;;4.60;99.90;;;;;;5060809;28;20278;-61
2023/12/13 04:12:49;;;;;;;21.30;13.90;;;4.60;99.90;;;;;;5057552;28;20649;-62
2023/12/13 04:15:14;;;;;;;22.50;14.20;;;4.70;99.90;;;;;;5069891;28;20419;-62
2023/12/13 04:17:40;;;;;;;23.70;14.63;;;4.70;99.90;;;;;;5065723;28;20228;-62
2023/12/13 04:20:06;;;;;;;17.30;12.97;;;4.70;99.90;;;;;;5060445;28;20199;-62
2023/12/13 04:22:32;;;;;;;23.13;13.07;;;4.70;99.90;;;;;;5064746;28;20598;-63
2023/12/13 04:24:57;;;;;;;20.97;14.50;;;4.70;99.90;;;;;;5060033;28;20750;-63
2023/12/13 04:27:23;;;;;;;16.50;12.30;;;4.70;99.90;;;;;;5067508;28;20162;-62
2023/12/13 04:29:48;;;;;;;19.90;13.37;;;4.80;99.90;;;;;;5057842;28;20186;-63
2023/12/13 04:32:14;;;;;;;27.73;15.17;;;4.70;99.90;;;;;;5050963;28;20191;-63
2023/12/13 04:34:39;;;;;;;21.27;13.90;;;4.80;99.90;;;;;;5054138;28;20175;-63
2023/12/13 04:37:05;;;;;;;24.73;14.97;;;4.80;99.90;;;;;;5059402;28;20259;-62
2023/12/13 04:39:31;;;;;;;16.63;13.83;;;4.80;99.90;;;;;;5048738;28;20201;-63
2023/12/13 04:41:56;;;;;;;17.43;12.40;;;4.80;99.90;;;;;;5067090;28;20191;-63
2023/12/13 04:44:27;;;;;;;20.00;13.03;;;4.80;99.90;;;;;;5067288;28;20587;-62
2023/12/13 04:46:54;;;;;;;22.87;14.50;;;4.80;99.90;;;;;;5066369;28;20257;-62
2023/12/13 04:49:19;;;;;;;21.63;14.70;;;4.80;99.90;;;;;;5055773;28;20920;-61
2023/12/13 04:51:45;;;;;;;18.00;14.07;;;4.80;99.90;;;;;;5065667;28;20432;-62
2023/12/13 04:54:11;;;;;;;21.77;14.77;;;4.80;99.90;;;;;;5052410;28;20191;-62
2023/12/13 04:56:37;;;;;;;20.87;14.30;;;4.80;99.90;;;;;;5064117;28;20254;-62
2023/12/13 04:59:02;;;;;;;22.60;13.80;;;4.90;99.90;;;;;;5047577;28;20465;-61
2023/12/13 05:01:28;;;;;;;23.37;14.67;;;4.90;99.90;;;;;;5048013;28;20494;-60
2023/12/13 05:03:54;;;;;;;21.83;15.40;;;4.80;99.90;;;;;;5060836;28;20177;-61
2023/12/13 05:06:19;;;;;;;23.97;14.13;;;4.80;99.90;;;;;;5046936;28;20171;-61
2023/12/13 05:08:46;;;;;;;21.63;13.37;;;4.80;99.90;;;;;;5061714;28;20174;-62
2023/12/13 05:11:12;;;;;;;25.83;14.33;;;4.80;99.90;;;;;;5052011;28;20222;-62
2023/12/13 05:13:37;;;;;;;25.10;16.10;;;4.70;99.90;;;;;;5067283;28;21007;-62
2023/12/13 05:16:07;;;;;;;22.80;13.17;;;4.70;99.90;;;;;;5066195;28;20198;-61
2023/12/13 05:18:32;;;;;;;27.70;15.27;;;4.70;99.90;;;;;;5067033;28;20218;-61
2023/12/13 05:20:58;;;;;;;21.23;14.00;;;4.70;99.90;;;;;;5060919;28;20507;-63
2023/12/13 05:23:25;;;;;;;23.20;14.07;;;4.70;99.90;;;;;;5051452;28;20168;-61
2023/12/13 05:25:51;;;;;;;23.60;14.70;;;4.70;99.90;;;;;;5053853;28;20163;-66
2023/12/13 05:28:17;;;;;;;21.90;15.07;;;4.70;99.90;;;;;;5065265;28;20408;-63
2023/12/13 05:30:42;;;;;;;24.00;15.63;;;4.70;99.90;;;;;;5053818;28;20935;-60
2023/12/13 05:33:08;;;;;;;27.47;16.40;;;4.70;99.90;;;;;;5071399;28;20413;-59
2023/12/13 05:35:34;;;;;;;27.27;17.60;;;4.70;99.90;;;;;;5056412;28;20167;-61
2023/12/13 05:38:00;;;;;;;19.90;16.00;;;4.70;99.90;;;;;;5051463;28;20198;-60
2023/12/13 05:40:26;;;;;;;22.90;15.70;;;4.70;99.90;;;;;;5061244;28;20458;-61
2023/12/13 05:42:51;;;;;;;23.93;16.67;;;4.70;99.90;;;;;;5044204;28;20265;-61
2023/12/13 05:45:17;;;;;;;24.60;18.73;;;4.70;99.90;;;;;;5061755;28;20641;-62
2023/12/13 05:47:43;;;;;;;27.00;16.37;;;4.70;99.90;;;;;;5052006;28;20183;-62
2023/12/13 05:50:08;;;;;;;26.17;18.97;;;4.70;99.90;;;;;;5063164;28;20171;-62
2023/12/13 05:52:36;;;;;;;24.77;16.60;;;4.70;99.90;;;;;;5033472;28;20282;-61
2023/12/13 05:55:02;;;;;;;27.57;17.80;;;4.70;99.90;;;;;;5062302;28;20194;-60
2023/12/13 05:57:28;;;;;;;23.07;17.03;;;4.80;99.90;;;;;;5054549;28;20578;-62
2023/12/13 05:59:54;;;;;;;27.50;16.23;;;4.80;99.90;;;;;;5060811;28;20457;-60
2023/12/13 06:02:20;;;;;;;31.07;17.20;;;4.70;99.90;;;;;;5063987;28;20494;-62
2023/12/13 06:04:45;;;;;;;28.63;16.50;;;4.80;99.90;;;;;;5054050;28;20191;-62
2023/12/13 06:07:11;;;;;;;24.40;16.30;;;4.80;99.90;;;;;;5062601;28;20172;-59
2023/12/13 06:09:37;;;;;;;25.87;16.77;;;4.80;99.90;;;;;;5047181;28;20207;-61
2023/12/13 06:12:05;;;;;;;30.50;17.77;;;4.80;99.90;;;;;;5056489;28;20256;-62
2023/12/13 06:14:31;;;;;;;25.30;19.20;;;4.80;99.90;;;;;;5060204;28;20175;-58
2023/12/13 06:16:57;;;;;;;21.33;16.70;;;4.80;99.90;;;;;;5049903;28;20418;-61
2023/12/13 06:19:26;;;;;;;24.30;15.50;;;4.80;99.90;;;;;;5067524;28;20202;-61
2023/12/13 06:21:52;;;;;;;25.07;16.70;;;4.80;99.90;;;;;;5046567;28;20490;-61
2023/12/13 06:24:18;;;;;;;26.47;18.80;;;4.90;99.90;;;;;;5055514;28;20769;-61
2023/12/13 06:26:43;;;;;;;30.40;19.80;;;4.90;99.90;;;;;;5048178;28;20562;-58
2023/12/13 06:29:11;;;;;;;24.63;16.00;;;4.90;99.90;;;;;;5066803;28;20541;-60
2023/12/13 06:31:39;;;;;;;28.40;19.03;;;4.90;99.90;;;;;;5056967;28;20205;-57
2023/12/13 06:34:05;;;;;;;18.53;14.70;;;4.90;99.90;;;;;;5067311;28;20417;-60
2023/12/13 06:36:31;;;;;;;22.13;16.13;;;4.90;99.90;;;;;;5059874;28;20931;-61
2023/12/13 06:38:56;;;;;;;23.63;16.33;;;4.90;99.90;;;;;;5060643;28;20400;-62
2023/12/13 06:41:22;;;;;;;24.27;14.73;;;4.90;99.90;;;;;;5066589;28;20244;-60
2023/12/13 06:43:47;;;;;;;21.53;15.43;;;4.90;99.90;;;;;;5060210;28;20170;-59
2023/12/13 06:46:13;;;;;;;25.23;16.40;;;4.90;99.90;;;;;;5062998;28;20177;-61
2023/12/13 06:48:39;;;;;;;21.90;15.70;;;4.90;99.90;;;;;;5058117;28;20178;-60
2023/12/13 06:51:05;;;;;;;20.73;14.30;;;4.90;99.90;;;;;;5066495;28;20194;-61
2023/12/13 06:53:32;;;;;;;19.00;15.20;;;4.90;99.90;;;;;;5058234;28;20419;-62
2023/12/13 06:55:58;;;;;;;20.03;14.80;;;4.90;99.90;;;;;;5039824;28;20418;-62
2023/12/13 06:58:24;;;;;;;18.50;14.87;;;4.90;99.90;;;;;;5056125;28;20456;-62
2023/12/13 07:00:49;;;;;;;23.40;14.40;;;5.00;99.90;;;;;;5061067;28;21003;-62
2023/12/13 07:03:15;;;;;;;22.50;15.67;;;4.90;99.90;;;;;;5066312;28;20257;-62
2023/12/13 07:05:41;;;;;;;24.90;15.20;;;4.90;99.90;;;;;;5063682;28;20602;-62
2023/12/13 07:08:08;;;;;;;21.57;14.43;;;4.90;99.90;;;;;;5050175;28;20197;-61
2023/12/13 07:10:33;;;;;;;23.67;15.23;;;5.00;99.90;;;;;;5059627;28;20218;-60
2023/12/13 07:12:59;;;;;;;25.63;14.37;;;5.00;99.90;;;;;;5059559;28;20831;-62
2023/12/13 07:15:24;;;;;;;21.93;13.87;;;5.00;99.90;;;;;;5060072;28;20167;-62
2023/12/13 07:17:50;;;;;;;18.07;12.87;;;5.00;99.90;;;;;;5044908;28;20226;-62
2023/12/13 07:20:18;;;;;;;18.83;14.93;;;5.00;99.90;;;;;;5061550;28;20171;-63
2023/12/13 07:22:43;;;;;;;16.73;12.10;;;5.00;99.90;;;;;;5058034;28;20205;-63
2023/12/13 07:25:09;;;;;;;17.10;13.03;;;5.00;99.90;;;;;;5048988;28;20786;-62
2023/12/13 07:27:35;;;;;;;19.07;13.90;;;5.00;99.90;;;;;;5057185;28;20174;-60
2023/12/13 07:30:00;;;;;;;21.07;14.60;;;5.00;99.90;;;;;;5064942;28;20412;-63
2023/12/13 07:32:26;;;;;;;23.97;14.77;;;5.00;99.90;;;;;;5057511;28;20299;-61
2023/12/13 07:34:52;;;;;;;22.07;14.53;;;5.00;99.90;;;;;;5064897;28;20185;-62
2023/12/13 07:37:17;;;;;;;20.73;14.10;;;5.00;99.90;;;;;;5063271;28;20261;-62
2023/12/13 07:39:43;;;;;;;20.73;15.40;;;5.00;99.90;;;;;;5054024;28;20595;-63
2023/12/13 07:42:09;;;;;;;19.90;13.40;;;5.00;99.90;;;;;;5062659;28;20432;-63
2023/12/13 07:44:34;;;;;;;18.67;14.37;;;5.00;99.90;;;;;;5046876;28;20179;-62
2023/12/13 07:47:01;;;;;;;22.10;15.00;;;5.10;99.90;;;;;;5063142;28;20409;-62
2023/12/13 07:49:27;;;;;;;21.57;13.40;;;5.10;99.90;;;;;;5061028;28;20179;-62
2023/12/13 07:51:53;;;;;;;24.13;15.50;;;5.10;99.90;;;;;;5062655;28;20428;-62
2023/12/13 07:54:19;;;;;;;22.07;15.67;;;5.10;99.90;;;;;;5066966;28;20482;-62
2023/12/13 07:56:45;;;;;;;25.97;16.10;;;5.10;99.90;;;;;;5068152;28;20645;-62
2023/12/13 07:59:11;;;;;;;23.83;15.90;;;5.10;99.90;;;;;;5060292;28;20812;-63
2023/12/13 08:01:37;;;;;;;32.27;16.57;;;5.10;99.90;;;;;;5061243;28;20443;-63
2023/12/13 08:04:03;;;;;;;23.43;16.17;;;5.10;99.90;;;;;;5058833;28;20455;-63
2023/12/13 08:06:28;;;;;;;24.57;17.23;;;5.10;99.90;;;;;;5059358;28;20570;-61
2023/12/13 08:08:54;;;;;;;24.33;16.77;;;5.10;99.90;;;;;;5057457;28;20262;-66
2023/12/13 08:11:20;;;;;;;23.77;16.43;;;5.10;99.90;;;;;;5046916;28;20199;-63
2023/12/13 08:13:46;;;;;;;27.77;17.37;;;5.10;99.90;;;;;;5066730;28;20501;-67
2023/12/13 08:16:11;;;;;;;29.90;17.77;;;5.00;99.90;;;;;;5064395;28;20186;-65
2023/12/13 08:18:37;;;;;;;32.87;18.70;;;5.00;99.90;;;;;;5066187;28;20255;-61
2023/12/13 08:21:06;;;;;;;27.13;16.20;;;5.00;99.90;;;;;;5068277;28;20256;-61
2023/12/13 08:23:34;;;;;;;32.07;21.60;;;5.00;99.90;;;;;;5064028;28;20418;-61
2023/12/13 08:26:00;;;;;;;27.10;17.37;;;5.00;99.90;;;;;;5053062;28;20453;-62
2023/12/13 08:28:26;;;;;;;30.87;21.60;;;5.10;99.90;;;;;;5062722;28;20420;-62
2023/12/13 08:30:51;;;;;;;32.77;19.10;;;5.10;99.90;;;;;;5053782;28;20174;-61
2023/12/13 08:33:17;;;;;;;27.30;18.57;;;5.10;99.90;;;;;;5060659;28;20179;-63
2023/12/13 08:35:42;;;;;;;30.27;21.37;;;5.10;99.90;;;;;;5066970;28;20257;-62
2023/12/13 08:38:08;;;;;;;32.77;21.70;;;5.10;99.90;;;;;;5061926;28;20630;-62
2023/12/13 08:40:33;;;;;;;29.40;21.10;;;5.20;99.90;;;;;;5065096;28;20215;-63
2023/12/13 08:42:59;;;;;;;28.43;19.90;;;5.20;99.90;;;;;;5065905;28;20232;-62
2023/12/13 08:45:25;;;;;;;36.83;21.53;;;5.20;99.90;;;;;;5060571;28;20175;-62
2023/12/13 08:47:50;;;;;;;30.53;20.37;;;5.30;99.90;;;;;;5046936;28;20728;-63
2023/12/13 08:50:16;;;;;;;29.60;20.97;;;5.20;99.90;;;;;;5046599;28;20312;-62
2023/12/13 08:52:42;;;;;;;36.87;22.27;;;5.30;99.90;;;;;;5052285;28;20217;-61
2023/12/13 08:55:10;;;;;;;33.37;22.07;;;5.30;99.90;;;;;;5065648;28;20585;-61
2023/12/13 08:57:38;;;;;;;35.80;22.70;;;5.30;99.90;;;;;;5050691;28;20278;-62
2023/12/13 09:00:06;;;;;;;36.97;21.63;;;5.30;99.90;;;;;;5052165;28;20397;-62
2023/12/13 09:02:32;;;;;;;35.77;24.20;;;5.30;99.90;;;;;;5062634;28;20424;-62
2023/12/13 09:04:57;;;;;;;37.00;23.37;;;5.30;99.90;;;;;;5060783;28;20870;-63
2023/12/13 09:07:23;;;;;;;38.30;21.60;;;5.30;99.90;;;;;;5055887;28;20185;-61
2023/12/13 09:09:49;;;;;;;34.20;22.40;;;5.40;99.90;;;;;;5065629;28;20179;-62
2023/12/13 09:12:14;;;;;;;40.97;24.53;;;5.40;99.90;;;;;;5062840;28;20190;-63
2023/12/13 09:14:40;;;;;;;33.43;21.63;;;5.40;99.90;;;;;;5055421;28;20177;-64
2023/12/13 09:17:05;;;;;;;36.30;23.10;;;5.40;99.90;;;;;;5061089;28;20357;-62
2023/12/13 09:19:31;;;;;;;40.80;27.60;;;5.40;99.90;;;;;;5057601;28;20206;-63
2023/12/13 09:21:57;;;;;;;35.70;23.00;;;5.40;99.90;;;;;;5053256;28;20194;-63
2023/12/13 09:24:22;;;;;;;35.47;23.50;;;5.50;99.90;;;;;;5053913;28;20167;-62
2023/12/13 09:26:49;;;;;;;40.83;23.73;;;5.40;99.90;;;;;;5051280;28;20167;-63
2023/12/13 09:29:14;;;;;;;36.77;22.93;;;5.40;99.90;;;;;;5054665;28;20915;-62
2023/12/13 09:31:40;;;;;;;43.60;25.90;;;5.30;99.90;;;;;;5063369;28;20442;-61
2023/12/13 09:34:06;;;;;;;37.13;24.03;;;5.40;99.90;;;;;;5058970;28;20179;-60
2023/12/13 09:36:32;;;;;;;39.50;25.43;;;5.40;99.90;;;;;;5044813;28;20251;-62
2023/12/13 09:38:58;;;;;;;43.07;25.77;;;5.50;99.90;;;;;;5046675;28;21007;-63
2023/12/13 09:41:34;;;;;;;38.00;25.13;;;5.50;99.90;;;;;;5065015;28;20461;-63
2023/12/13 09:43:59;;;;;;;42.87;25.77;;;5.50;99.90;;;;;;5053821;28;20179;-64
2023/12/13 09:46:26;;;;;;;39.60;26.97;;;5.40;99.90;;;;;;5061727;28;20413;-63
2023/12/13 09:48:54;;;;;;;42.40;25.30;;;5.50;99.90;;;;;;5043369;28;20298;-64
2023/12/13 09:51:22;;;;;;;44.73;25.93;;;5.50;99.90;;;;;;5061449;28;20623;-65
2023/12/13 09:53:49;;;;;;;36.33;24.07;;;5.50;99.90;;;;;;5050538;28;20436;-64
2023/12/13 09:56:15;;;;;;;40.17;24.70;;;5.50;99.90;;;;;;5049622;28;20422;-62
2023/12/13 09:58:40;;;;;;;45.10;26.40;;;5.40;99.90;;;;;;5063985;28;20456;-64
2023/12/13 10:01:12;;;;;;;38.73;24.47;;;5.40;99.90;;;;;;5066597;28;21009;-61
2023/12/13 10:03:41;;;;;;;41.50;27.20;;;5.40;99.90;;;;;;5065407;28;20181;-62
2023/12/13 10:06:08;;;;;;;43.37;26.37;;;5.40;99.90;;;;;;5056617;28;20777;-62
2023/12/13 10:08:35;;;;;;;39.50;23.50;;;5.40;99.90;;;;;;5047652;28;20530;-62
2023/12/13 10:11:02;;;;;;;42.90;27.23;;;5.40;99.90;;;;;;5058747;28;20435;-62
2023/12/13 10:13:28;;;;;;;36.40;25.30;;;5.50;99.90;;;;;;5062483;28;20743;-63
2023/12/13 10:15:53;;;;;;;38.17;25.60;;;5.50;99.90;;;;;;5058050;28;20941;-63
2023/12/13 10:18:19;;;;;;;40.50;24.17;;;5.40;99.90;;;;;;5058322;28;20293;-61
2023/12/13 10:20:46;;;;;;;42.70;27.50;;;5.40;99.90;;;;;;5056665;28;20167;-62
2023/12/13 10:23:12;;;;;;;37.00;24.57;;;5.50;99.90;;;;;;5063811;28;20645;-62
2023/12/13 10:25:38;;;;;;;39.70;23.90;;;5.50;99.90;;;;;;5057439;28;20422;-63
2023/12/13 10:28:04;;;;;;;39.13;24.70;;;5.60;99.90;;;;;;5067191;28;20417;-63
2023/12/13 10:30:30;;;;;;;36.80;22.80;;;5.50;99.90;;;;;;5046422;28;20401;-62
2023/12/13 10:32:56;;;;;;;35.50;24.87;;;5.40;99.90;;;;;;5051476;28;20954;-61
2023/12/13 10:35:22;;;;;;;37.40;22.73;;;5.40;99.90;;;;;;5063640;28;20485;-64
2023/12/13 10:37:49;;;;;;;36.03;23.73;;;5.40;99.90;;;;;;5064833;28;20202;-62
2023/12/13 10:40:17;;;;;;;38.37;24.03;;;5.50;99.90;;;;;;5052545;28;20409;-62
2023/12/13 10:42:45;;;;;;;37.20;24.40;;;5.60;99.90;;;;;;5058487;28;20964;-61
2023/12/13 10:45:12;;;;;;;37.00;22.90;;;5.60;99.90;;;;;;5051466;28;20413;-62
2023/12/13 10:47:44;;;;;;;29.73;21.13;;;5.60;99.90;;;;;;5059208;28;20409;-63
2023/12/13 10:50:10;;;;;;;35.73;21.30;;;5.60;99.90;;;;;;5060974;28;20408;-62
2023/12/13 10:52:38;;;;;;;39.03;22.33;;;5.60;99.90;;;;;;5047158;28;20434;-61
2023/12/13 10:55:08;;;;;;;31.70;22.20;;;5.50;99.90;;;;;;5063315;28;20908;-62
2023/12/13 10:57:36;;;;;;;34.80;21.47;;;5.50;99.90;;;;;;5062469;28;20493;-62
2023/12/13 11:00:04;;;;;;;40.23;23.47;;;5.50;99.90;;;;;;5066475;28;20417;-63
2023/12/13 11:02:41;;;;;;;41.10;21.70;;;5.50;99.90;;;;;;5050622;28;20452;-63
2023/12/13 11:05:07;;;;;;;31.47;19.63;;;5.50;99.90;;;;;;5059194;28;20883;-59
2023/12/13 11:07:43;;;;;;;35.53;22.90;;;5.60;99.90;;;;;;5065551;28;21114;-61
2023/12/13 11:10:11;;;;;;;36.40;22.57;;;5.70;99.90;;;;;;5061772;28;20428;-62
2023/12/13 11:12:51;;;;;;;30.20;19.83;;;5.60;99.90;;;;;;5066680;28;20457;-62
2023/12/13 11:15:18;;;;;;;36.10;21.50;;;5.60;99.90;;;;;;5049276;28;20479;-61
2023/12/13 11:17:59;;;;;;;30.07;20.23;;;5.50;99.90;;;;;;5063326;28;20456;-63
2023/12/13 11:20:26;;;;;;;35.57;21.87;;;5.50;99.90;;;;;;5064424;28;20410;-63
2023/12/13 11:22:55;;;;;;;33.40;21.30;;;5.50;99.90;;;;;;5061261;28;20432;-61
2023/12/13 11:25:34;;;;;;;31.07;20.53;;;5.50;99.90;;;;;;5056251;28;20888;-62
2023/12/13 11:28:00;;;;;;;29.57;19.40;;;5.50;99.90;;;;;;5067445;28;20862;-61
2023/12/13 11:30:25;;;;;;;34.50;21.63;;;5.50;99.90;;;;;;5057315;28;20432;-61
2023/12/13 11:32:51;;;;;;;37.57;23.20;;;5.50;99.90;;;;;;5061035;28;20437;-63
2023/12/13 11:35:19;;;;;;;34.00;21.40;;;5.50;99.90;;;;;;5067621;28;20182;-62
2023/12/13 11:37:49;;;;;;;37.73;24.03;;;5.50;99.90;;;;;;5065695;28;20460;-63
2023/12/13 11:40:15;;;;;;;41.70;24.20;;;5.60;99.90;;;;;;5056957;28;20424;-63
2023/12/13 11:42:41;;;;;;;37.53;22.37;;;5.60;99.90;;;;;;5057425;28;20896;-63
2023/12/13 11:45:07;;;;;;;37.07;22.80;;;5.60;99.90;;;;;;5069297;28;20173;-63
2023/12/13 11:47:32;;;;;;;32.00;21.33;;;5.60;99.90;;;;;;5062075;28;20159;-63
2023/12/13 11:49:58;;;;;;;36.67;20.33;;;5.50;99.90;;;;;;5061666;28;20401;-63
2023/12/13 11:52:24;;;;;;;38.67;23.67;;;5.50;99.90;;;;;;5067189;28;20271;-60
2023/12/13 11:54:50;;;;;;;34.83;22.20;;;5.50;99.90;;;;;;5057129;28;20179;-63
2023/12/13 11:57:21;;;;;;;36.43;22.67;;;5.50;99.90;;;;;;5057174;28;20410;-63
2023/12/13 11:59:48;;;;;;;31.30;21.17;;;5.50;99.90;;;;;;5059894;28;20464;-63
2023/12/13 12:02:16;;;;;;;34.27;20.47;;;5.50;99.90;;;;;;5062921;28;20978;-63
2023/12/13 12:04:43;;;;;;;38.87;23.20;;;5.50;99.90;;;;;;5054071;28;20414;-63
2023/12/13 12:07:14;;;;;;;33.00;21.73;;;5.50;99.90;;;;;;5058187;28;20422;-62
2023/12/13 12:09:40;;;;;;;36.23;21.20;;;5.50;99.90;;;;;;5047644;28;20414;-63
2023/12/13 12:12:09;;;;;;;35.03;20.13;;;5.50;99.90;;;;;;5061589;28;20531;-64
2023/12/13 12:14:35;;;;;;;31.73;21.10;;;5.50;99.90;;;;;;5061124;28;20442;-63
2023/12/13 12:17:01;;;;;;;34.57;20.77;;;5.50;99.90;;;;;;5055084;28;20479;-63
2023/12/13 12:19:29;;;;;;;37.87;22.30;;;5.50;99.90;;;;;;5057073;28;20199;-62
2023/12/13 12:21:55;;;;;;;34.23;21.07;;;5.50;99.90;;;;;;5057162;28;20246;-62
2023/12/13 12:24:27;;;;;;;33.77;22.50;;;5.50;99.90;;;;;;5054462;28;20823;-62
2023/12/13 12:26:54;;;;;;;33.80;21.10;;;5.50;99.90;;;;;;5068664;28;20179;-62
2023/12/13 12:29:20;;;;;;;36.37;20.77;;;5.50;99.90;;;;;;5062641;28;20928;-62
2023/12/13 12:31:46;;;;;;;34.90;22.47;;;5.50;99.90;;;;;;5053004;28;20433;-61